Time;durP1;ratioP1;P1;durP2;ratioP2;P2;SDS_P1;SDS_P2;PMS_P1;PMS_P2;Temp;Humidity;BMP_temperature;BMP_pressure;BME280_temperature;BME280_humidity;BME280_pressure;Samples;Min_cycle;Max_cycle;Signal;HPM_P1;HPM_P2
2021/12/17 00:01:00;;;;;;;20.37;12.93;;;;;;;3.09;100.00;99506.86;1736960;81;21039;-67
2021/12/17 00:03:38;;;;;;;24.92;12.53;;;;;;;3.09;100.00;99508.78;1736476;81;20971;-66
2021/12/17 00:08:33;;;;;;;20.70;11.33;;;;;;;3.07;100.00;99509.02;1760176;80;21105;-66
2021/12/17 00:10:59;;;;;;;18.67;11.18;;;;;;;3.07;100.00;99512.31;1760211;81;20964;-69
2021/12/17 00:13:26;;;;;;;24.43;12.93;;;;;;;3.05;100.00;99507.14;1760670;81;21004;-66
2021/12/17 00:15:53;;;;;;;21.45;11.93;;;;;;;3.02;100.00;99510.41;1760124;81;21059;-67
2021/12/17 00:18:27;;;;;;;19.92;11.40;;;;;;;2.99;100.00;99508.20;1736929;81;20900;-67
2021/12/17 00:51:18;;;;;;;9.50;5.95;;;;;;;2.89;100.00;99519.89;1736186;81;21019;-65
2021/12/17 00:53:21;;;;;;;12.65;6.62;;;;;;;2.90;100.00;99515.53;1760337;81;20907;-67
2021/12/17 00:55:48;;;;;;;11.20;6.05;;;;;;;2.87;100.00;99520.70;1760184;81;20987;-66
2021/12/17 00:58:15;;;;;;;13.38;6.33;;;;;;;2.77;100.00;99516.88;1760441;81;21410;-67
2021/12/17 01:00:41;;;;;;;9.30;5.67;;;;;;;2.72;100.00;99506.51;1760042;81;21052;-67
2021/12/17 01:03:09;;;;;;;10.25;5.35;;;;;;;2.68;100.00;99504.33;1760470;81;20911;-66
2021/12/17 01:05:36;;;;;;;10.78;6.30;;;;;;;2.67;100.00;99511.40;1736278;81;21018;-67
2021/12/17 01:08:04;;;;;;;9.45;5.62;;;;;;;2.66;100.00;99505.13;1760410;81;20892;-66
2021/12/17 01:10:37;;;;;;;11.43;6.67;;;;;;;2.66;100.00;99500.25;1760241;81;20884;-66
2021/12/17 01:13:12;;;;;;;9.55;5.80;;;;;;;2.65;100.00;99498.06;1730543;81;21048;-66
2021/12/17 01:15:57;;;;;;;9.40;5.87;;;;;;;2.61;100.00;99496.95;1760169;81;20892;-67
2021/12/17 01:18:39;;;;;;;9.50;5.85;;;;;;;2.59;100.00;99497.78;1760231;81;21002;-69
2021/12/17 01:22:14;;;;;;;8.30;4.23;;;;;;;2.59;100.00;99492.88;1760380;81;20876;-67
2021/12/17 01:43:13;;;;;;;12.40;4.40;;;;;;;2.52;100.00;99467.28;1760423;81;20868;-67
2021/12/17 01:45:42;;;;;;;8.38;3.67;;;;;;;2.51;100.00;99468.34;1760165;81;20908;-67
2021/12/17 01:48:14;;;;;;;4.72;2.80;;;;;;;2.49;100.00;99457.73;1760281;81;20981;-67
2021/12/17 02:01:40;;;;;;;5.22;2.27;;;;;;;2.44;100.00;99464.52;1736511;81;21010;-67
2021/12/17 02:04:06;;;;;;;7.50;3.77;;;;;;;2.45;100.00;99462.63;1760321;81;20931;-67
2021/12/17 02:06:36;;;;;;;6.95;2.27;;;;;;;2.48;100.00;99467.53;1760083;81;21537;-66
2021/12/17 02:09:44;;;;;;;4.08;2.33;;;;;;;2.50;100.00;99469.45;1760307;81;21369;-67
2021/12/17 02:20:20;;;;;;;4.22;2.37;;;;;;;2.50;100.00;99464.00;1760207;81;20916;-68
2021/12/17 02:31:08;;;;;;;6.22;2.67;;;;;;;2.34;100.00;99458.51;1710097;81;21070;-66
2021/12/17 02:33:25;;;;;;;5.00;2.95;;;;;;;2.36;100.00;99456.34;1743810;81;21449;-66
2021/12/17 02:35:51;;;;;;;4.90;2.40;;;;;;;2.40;100.00;99453.38;1786042;80;20967;-68
2021/12/17 02:38:18;;;;;;;6.92;2.85;;;;;;;2.43;100.00;99446.05;1785953;80;20948;-66
2021/12/17 02:46:46;;;;;;;4.92;2.00;;;;;;;2.44;100.00;99441.40;1755324;81;21507;-67
2021/12/17 02:49:13;;;;;;;5.25;2.77;;;;;;;2.45;100.00;99439.51;1785939;80;20924;-68
2021/12/17 02:51:41;;;;;;;5.28;2.75;;;;;;;2.49;100.00;99444.70;1758947;80;21008;-66
2021/12/17 02:54:07;;;;;;;4.50;1.80;;;;;;;2.51;100.00;99448.77;1783914;80;20964;-67
2021/12/17 02:56:36;;;;;;;6.45;2.55;;;;;;;2.49;100.00;99444.70;1783603;80;20916;-66
2021/12/17 02:59:04;;;;;;;4.00;2.02;;;;;;;2.49;100.00;99440.62;1783758;80;21030;-67
2021/12/17 03:01:31;;;;;;;4.33;1.82;;;;;;;2.45;100.00;99443.59;1783545;80;20913;-65
2021/12/17 03:03:57;;;;;;;7.30;2.58;;;;;;;2.44;100.00;99435.96;1759290;80;21011;-65
2021/12/17 03:06:25;;;;;;;5.47;2.37;;;;;;;2.44;100.00;99435.96;1759475;80;20850;-65
2021/12/17 03:08:52;;;;;;;8.50;2.40;;;;;;;2.41;100.00;99437.33;1783432;80;21006;-67
2021/12/17 03:11:19;;;;;;;4.37;2.12;;;;;;;2.40;100.00;99434.34;1783493;80;21545;-65
2021/12/17 03:13:49;;;;;;;2.25;1.77;;;;;;;2.43;100.00;99437.05;1783563;80;21007;-67
2021/12/17 03:16:29;;;;;;;3.37;2.00;;;;;;;2.43;100.00;99439.78;1783433;80;21370;-67
2021/12/17 03:19:02;;;;;;;4.47;2.30;;;;;;;2.39;100.00;99440.85;1783879;80;20988;-66
2021/12/17 03:24:04;;;;;;;3.12;2.05;;;;;;;2.36;100.00;99433.77;1783641;80;21542;-69
2021/12/17 03:26:33;;;;;;;4.62;1.90;;;;;;;2.33;100.00;99438.38;1783478;80;20967;-67
2021/12/17 03:29:04;;;;;;;10.15;2.60;;;;;;;2.30;100.00;99430.23;1759094;80;21536;-67
2021/12/17 03:31:32;;;;;;;5.60;2.10;;;;;;;2.27;100.00;99431.56;1783700;80;21409;-67
2021/12/17 03:34:17;;;;;;;7.58;2.80;;;;;;;2.26;100.00;99429.11;1783907;80;20869;-65
2021/12/17 03:36:37;;;;;;;4.58;2.10;;;;;;;2.25;100.00;99432.36;1783239;80;21399;-66
2021/12/17 03:39:04;;;;;;;7.92;2.20;;;;;;;2.26;100.00;99428.58;1783508;80;20917;-66
2021/12/17 03:41:40;;;;;;;5.37;2.10;;;;;;;2.26;100.00;99426.39;1783523;80;20885;-69
2021/12/17 03:44:05;;;;;;;5.70;2.42;;;;;;;2.22;100.00;99423.95;1782969;80;20889;-68
2021/12/17 03:46:35;;;;;;;7.42;2.83;;;;;;;2.22;100.00;99420.67;1736511;80;20908;-68
2021/12/17 03:49:02;;;;;;;4.67;2.05;;;;;;;2.22;100.00;99421.23;1783888;80;21768;-68
2021/12/17 03:51:30;;;;;;;8.75;2.95;;;;;;;2.22;100.00;99419.31;1783451;80;20928;-69
2021/12/17 03:53:59;;;;;;;8.40;3.05;;;;;;;2.25;100.00;99422.05;1783999;80;20951;-68
2021/12/17 03:56:26;;;;;;;10.58;3.65;;;;;;;2.24;100.00;99420.40;1783506;80;21522;-68
2021/12/17 03:58:57;;;;;;;6.92;3.10;;;;;;;2.26;100.00;99426.39;1783455;80;20980;-68
2021/12/17 04:01:26;;;;;;;3.35;1.80;;;;;;;2.27;100.00;99414.45;1783534;80;21107;-67
2021/12/17 04:03:57;;;;;;;15.03;4.05;;;;;;;2.29;100.00;99413.09;1783360;80;20900;-65
2021/12/17 04:06:27;;;;;;;9.80;3.08;;;;;;;2.28;100.00;99407.91;1767740;81;20999;-65
2021/12/17 04:08:56;;;;;;;9.50;2.65;;;;;;;2.29;100.00;99411.73;1723465;81;21019;-66
2021/12/17 04:11:25;;;;;;;7.97;3.12;;;;;;;2.31;100.00;99401.94;1783483;80;20992;-66
2021/12/17 04:13:57;;;;;;;12.98;4.42;;;;;;;2.33;100.00;99405.75;1783489;80;21346;-66
2021/12/17 04:16:30;;;;;;;10.90;3.62;;;;;;;2.34;100.00;99406.05;1783572;80;20976;-66
2021/12/17 04:18:57;;;;;;;8.75;2.87;;;;;;;2.30;100.00;99415.27;1783665;80;21484;-67
2021/12/17 04:21:26;;;;;;;9.03;2.30;;;;;;;2.28;100.00;99414.72;1783657;80;20957;-66
2021/12/17 04:23:54;;;;;;;4.17;1.60;;;;;;;2.23;100.00;99409.26;1782255;80;21369;-67
2021/12/17 04:26:24;;;;;;;3.37;1.72;;;;;;;2.22;100.00;99415.23;1781330;80;21161;-67
2021/12/17 04:28:54;;;;;;;5.60;2.17;;;;;;;2.20;100.00;99411.98;1781597;80;21414;-67
2021/12/17 04:31:26;;;;;;;7.30;2.67;;;;;;;2.20;100.00;99398.39;1780636;80;20841;-67
2021/12/17 04:33:52;;;;;;;8.05;2.75;;;;;;;2.19;100.00;99398.09;1759183;80;21544;-64
2021/12/17 04:36:25;;;;;;;5.47;2.22;;;;;;;2.21;100.00;99405.98;1759243;80;21039;-67
2021/12/17 04:38:48;;;;;;;5.40;2.00;;;;;;;2.19;100.00;99401.64;1781324;80;21046;-67
2021/12/17 04:44:16;;;;;;;5.45;1.62;;;;;;;2.13;100.00;99413.56;1759362;80;21054;-67
2021/12/17 04:46:30;;;;;;;5.65;1.85;;;;;;;2.11;100.00;99406.77;1775840;80;21389;-64
2021/12/17 04:59:51;;;;;;;3.30;1.47;;;;;;;2.06;100.00;99404.86;1759028;80;21032;-65
2021/12/17 05:02:19;;;;;;;10.68;2.47;;;;;;;2.06;100.00;99406.22;1781550;80;21040;-66
2021/12/17 05:04:48;;;;;;;5.85;2.52;;;;;;;2.02;100.00;99398.30;1759189;80;21876;-66
2021/12/17 05:07:16;;;;;;;6.95;3.30;;;;;;;1.99;100.00;99396.12;1781467;80;20885;-67
2021/12/17 05:09:54;;;;;;;7.72;3.00;;;;;;;2.01;100.00;99402.11;1781465;80;20901;-67
2021/12/17 05:23:11;;;;;;;9.50;3.27;;;;;;;1.99;100.00;99401.03;1759184;80;21437;-66
2021/12/17 05:25:37;;;;;;;7.05;3.20;;;;;;;1.97;100.00;99401.00;1781443;80;21079;-66
2021/12/17 05:28:06;;;;;;;9.13;3.25;;;;;;;1.96;100.00;99394.77;1781581;80;20957;-67
2021/12/17 05:30:35;;;;;;;10.32;3.83;;;;;;;1.96;100.00;99387.14;1781425;80;21916;-66
2021/12/17 05:33:01;;;;;;;10.63;3.30;;;;;;;1.99;100.00;99390.16;1781549;80;20912;-68
2021/12/17 05:35:29;;;;;;;7.12;2.27;;;;;;;2.00;100.00;99388.23;1781535;80;21067;-68
2021/12/17 05:37:56;;;;;;;6.97;3.00;;;;;;;1.99;100.00;99387.44;1781327;80;20984;-67
2021/12/17 05:40:25;;;;;;;9.75;3.30;;;;;;;1.99;100.00;99386.08;1759118;80;20933;-65
2021/12/17 05:42:58;;;;;;;10.08;3.67;;;;;;;1.98;100.00;99384.98;1781486;80;21097;-67
2021/12/17 05:48:04;;;;;;;6.17;2.50;;;;;;;1.93;100.00;99383.87;1759069;80;21012;-66
2021/12/17 05:50:31;;;;;;;11.95;3.05;;;;;;;1.94;100.00;99386.85;1758978;80;20921;-67
2021/12/17 05:52:59;;;;;;;10.55;3.10;;;;;;;1.95;100.00;99380.88;1781502;80;21075;-67
2021/12/17 05:55:26;;;;;;;9.75;3.08;;;;;;;1.97;100.00;99392.31;1781252;80;21152;-67
2021/12/17 05:57:53;;;;;;;7.60;3.20;;;;;;;1.98;100.00;99382.27;1758870;80;21088;-67
2021/12/17 06:00:21;;;;;;;8.18;2.90;;;;;;;1.98;100.00;99381.70;1781742;80;21015;-66
2021/12/17 06:02:48;;;;;;;9.28;3.02;;;;;;;1.97;100.00;99386.88;1781360;80;20956;-67
2021/12/17 06:05:16;;;;;;;8.43;2.83;;;;;;;1.96;100.00;99381.70;1759204;80;20937;-67
2021/12/17 06:07:44;;;;;;;5.03;2.65;;;;;;;1.98;100.00;99386.34;1759022;80;21112;-67
2021/12/17 06:10:11;;;;;;;11.20;3.95;;;;;;;1.98;100.00;99383.63;1758981;80;20979;-66
2021/12/17 06:12:43;;;;;;;10.20;3.40;;;;;;;1.98;100.00;99391.22;1781381;80;20979;-68
2021/12/17 06:15:15;;;;;;;7.67;2.80;;;;;;;2.01;100.00;99383.91;1759014;80;20968;-68
2021/12/17 06:17:42;;;;;;;7.80;3.05;;;;;;;2.02;100.00;99387.43;1781738;80;20877;-69
2021/12/17 06:20:11;;;;;;;11.05;3.65;;;;;;;2.03;100.00;99393.16;1781310;80;21122;-67
2021/12/17 06:22:40;;;;;;;9.73;4.40;;;;;;;2.02;100.00;99391.51;1781655;80;20956;-67
2021/12/17 06:25:10;;;;;;;9.58;2.80;;;;;;;2.03;100.00;99393.16;1781291;80;20984;-68
2021/12/17 06:27:37;;;;;;;6.03;2.65;;;;;;;2.04;100.00;99398.33;1781556;80;21047;-67
2021/12/17 06:30:05;;;;;;;9.40;2.80;;;;;;;2.02;100.00;99390.98;1781406;80;20945;-69
2021/12/17 06:32:32;;;;;;;12.80;3.30;;;;;;;2.04;100.00;99398.86;1781305;80;21402;-67
2021/12/17 06:34:58;;;;;;;8.70;2.50;;;;;;;2.06;100.00;99393.98;1781433;80;20988;-67
2021/12/17 06:37:25;;;;;;;8.55;3.05;;;;;;;2.07;100.00;99392.89;1781262;80;20874;-66
2021/12/17 06:39:52;;;;;;;8.18;3.60;;;;;;;2.05;100.00;99398.59;1758976;80;21508;-65
2021/12/17 06:42:19;;;;;;;7.87;3.12;;;;;;;2.06;100.00;99383.91;1781407;80;20972;-67
2021/12/17 06:44:47;;;;;;;8.00;2.95;;;;;;;2.04;99.96;99384.73;1781591;80;21168;-69
2021/12/17 06:47:27;;;;;;;9.55;2.87;;;;;;;2.05;100.00;99386.89;1781648;80;20865;-70
2021/12/17 06:49:51;;;;;;;15.10;3.42;;;;;;;2.03;100.00;99384.45;1781543;80;20872;-67
2021/12/17 06:55:17;;;;;;;9.50;2.95;;;;;;;2.06;100.00;99388.55;1781429;80;20940;-66
2021/12/17 07:06:16;;;;;;;10.78;3.87;;;;;;;2.04;99.57;99405.66;1781430;80;20992;-67
2021/12/17 07:09:35;;;;;;;11.35;3.60;;;;;;;2.04;99.45;99394.78;1781344;80;21387;-66
2021/12/17 07:17:20;;;;;;;8.70;3.52;;;;;;;2.05;99.06;99399.13;1785115;80;20928;-66
2021/12/17 07:28:09;;;;;;;8.70;3.52;;;;;;;2.03;98.51;99402.11;1781110;80;20909;-67
2021/12/17 07:33:42;;;;;;;9.93;5.40;;;;;;;2.00;98.58;99398.57;1781403;80;20885;-67
2021/12/17 07:36:38;;;;;;;6.58;3.15;;;;;;;1.99;99.02;99396.12;1781386;80;21030;-66
2021/12/17 07:38:58;;;;;;;9.98;3.62;;;;;;;2.00;99.29;99391.77;1780575;80;21028;-66
2021/12/17 07:41:52;;;;;;;9.98;3.75;;;;;;;1.98;99.36;99392.58;1781346;80;20960;-66
2021/12/17 07:44:29;;;;;;;5.25;2.70;;;;;;;1.99;99.40;99392.05;1780495;80;20996;-67
2021/12/17 07:47:01;;;;;;;8.75;3.52;;;;;;;1.97;99.21;99393.67;1744216;80;21039;-67
2021/12/17 07:49:29;;;;;;;8.75;3.25;;;;;;;1.98;99.10;99395.86;1781182;80;20988;-66
2021/12/17 07:51:55;;;;;;;4.83;2.83;;;;;;;1.93;99.25;99387.95;1759980;80;22051;-65
2021/12/17 07:54:22;;;;;;;4.40;2.60;;;;;;;1.88;99.21;99391.17;1785398;80;20881;-65
2021/12/17 07:56:52;;;;;;;8.60;4.62;;;;;;;1.84;99.33;99397.70;1755847;80;21044;-65
2021/12/17 07:59:22;;;;;;;8.25;3.05;;;;;;;1.80;99.46;99393.87;1719478;81;21039;-66
2021/12/17 08:01:49;;;;;;;8.13;3.45;;;;;;;1.81;99.64;99392.77;1768450;80;21095;-66
2021/12/17 08:04:21;;;;;;;4.58;2.55;;;;;;;1.80;99.77;99395.22;1774393;80;21177;-66
2021/12/17 08:06:49;;;;;;;7.60;3.40;;;;;;;1.77;100.00;99397.12;1769626;80;21094;-66
2021/12/17 08:09:20;;;;;;;6.05;3.30;;;;;;;1.76;100.00;99392.75;1736015;81;21066;-64
2021/12/17 08:11:54;;;;;;;7.30;3.35;;;;;;;1.76;100.00;99400.90;1729619;81;20952;-68
2021/12/17 08:14:17;;;;;;;6.85;3.65;;;;;;;1.76;100.00;99396.29;1756976;81;21002;-70
2021/12/17 08:25:08;;;;;;;11.57;4.85;;;;;;;1.80;100.00;99391.15;1761333;81;21019;-67
2021/12/17 08:27:42;;;;;;;11.75;4.30;;;;;;;1.80;100.00;99393.33;1704755;82;21062;-65
2021/12/17 08:32:38;;;;;;;8.93;4.42;;;;;;;1.82;100.00;99388.99;1714960;81;20168;-66
2021/12/17 08:35:08;;;;;;;15.10;6.35;;;;;;;1.83;100.00;99391.97;1757698;81;21042;-65
2021/12/17 08:37:35;;;;;;;10.93;4.67;;;;;;;1.85;100.00;99388.98;1708841;81;20987;-63
2021/12/17 08:40:05;;;;;;;11.50;5.20;;;;;;;1.88;100.00;99390.64;1734252;82;21072;-68
2021/12/17 08:42:36;;;;;;;14.50;7.72;;;;;;;1.87;100.00;99388.19;1710267;82;21839;-65
2021/12/17 08:45:08;;;;;;;11.08;5.55;;;;;;;1.88;100.00;99389.81;1761166;81;20878;-68
2021/12/17 08:47:44;;;;;;;9.98;5.40;;;;;;;1.89;100.00;99378.70;1681581;82;21062;-68
2021/12/17 08:50:12;;;;;;;9.88;4.22;;;;;;;1.89;100.00;99382.78;1711271;82;20956;-68
2021/12/17 08:52:41;;;;;;;11.97;5.42;;;;;;;1.88;99.65;99381.13;1738906;82;21050;-68
2021/12/17 08:55:08;;;;;;;14.68;4.67;;;;;;;1.87;99.70;99382.75;1738805;82;21155;-67
2021/12/17 08:57:35;;;;;;;7.83;5.40;;;;;;;1.88;99.70;99382.48;1738696;82;20880;-68
2021/12/17 09:00:06;;;;;;;10.15;5.60;;;;;;;1.86;99.48;99379.21;1711803;82;21065;-68
2021/12/17 09:02:58;;;;;;;15.55;6.78;;;;;;;1.88;99.61;99374.33;1715476;82;20979;-66
2021/12/17 09:05:24;;;;;;;21.35;10.63;;;;;;;1.87;98.89;99377.32;1751451;81;20975;-66
2021/12/17 09:07:52;;;;;;;25.55;11.90;;;;;;;1.88;98.98;99368.07;1720134;82;21779;-66
2021/12/17 09:10:23;;;;;;;16.27;8.00;;;;;;;1.90;99.03;99370.81;1707731;83;21015;-67
2021/12/17 09:12:51;;;;;;;21.50;9.80;;;;;;;1.94;99.07;99364.31;1727303;83;21011;-69
2021/12/17 09:15:20;;;;;;;20.10;10.68;;;;;;;1.97;99.11;99366.49;1754448;81;21472;-68
2021/12/17 09:17:54;;;;;;;12.93;6.47;;;;;;;2.00;99.04;99365.95;1719449;83;20929;-66
2021/12/17 09:20:24;;;;;;;19.85;8.85;;;;;;;2.01;99.07;99362.70;1722861;83;21116;-69
2021/12/17 09:22:54;;;;;;;10.05;5.60;;;;;;;1.99;98.93;99362.14;1722922;83;21060;-67
2021/12/17 09:25:22;;;;;;;22.45;8.50;;;;;;;2.00;99.06;99359.16;1727488;83;20971;-67
2021/12/17 09:27:53;;;;;;;20.17;5.95;;;;;;;2.03;99.12;99359.98;1727699;83;20960;-68
2021/12/17 09:30:28;;;;;;;14.45;7.30;;;;;;;2.07;99.09;99357.55;1753838;81;20958;-68
2021/12/17 09:32:55;;;;;;;10.98;6.08;;;;;;;2.11;98.89;99356.48;1700542;83;21104;-69
2021/12/17 09:35:24;;;;;;;17.70;5.75;;;;;;;2.11;97.84;99358.66;1727483;83;20927;-68
2021/12/17 09:37:51;;;;;;;17.77;6.30;;;;;;;2.13;97.79;99352.39;1727736;83;21488;-69
2021/12/17 09:40:17;;;;;;;15.05;7.05;;;;;;;2.14;97.62;99351.33;1754630;81;20987;-69
2021/12/17 09:42:45;;;;;;;12.93;5.08;;;;;;;2.14;97.27;99353.22;1754328;81;20971;-69
2021/12/17 09:45:13;;;;;;;15.43;6.78;;;;;;;2.16;97.26;99345.08;1726657;81;21246;-68
2021/12/17 09:47:41;;;;;;;13.65;6.28;;;;;;;2.18;96.82;99350.25;1700537;83;20991;-67
2021/12/17 09:50:08;;;;;;;13.98;5.40;;;;;;;2.17;97.04;99342.62;1700978;83;20979;-68
2021/12/17 09:52:37;;;;;;;13.38;5.72;;;;;;;2.18;97.17;99346.17;1754171;81;21041;-69
2021/12/17 09:55:05;;;;;;;14.63;6.05;;;;;;;2.19;97.17;99345.08;1754317;81;20984;-67
2021/12/17 09:57:35;;;;;;;11.63;5.15;;;;;;;2.22;97.12;99347.25;1727785;83;21010;-69
2021/12/17 10:00:00;;;;;;;14.53;6.08;;;;;;;2.20;96.42;99345.37;1727139;83;21026;-69
2021/12/17 10:02:26;;;;;;;13.25;4.47;;;;;;;2.17;97.63;99341.27;1754199;81;20927;-71
2021/12/17 10:04:57;;;;;;;16.50;5.50;;;;;;;2.09;99.06;99343.16;1696515;83;20984;-68
2021/12/17 10:07:32;;;;;;;12.43;6.15;;;;;;;2.06;99.19;99335.53;1727729;82;20919;-66
2021/12/17 10:10:00;;;;;;;13.00;5.87;;;;;;;2.09;98.54;99335.53;1700774;83;21083;-67
2021/12/17 10:12:34;;;;;;;9.83;5.50;;;;;;;2.12;97.85;99326.83;1754556;81;20924;-68
2021/12/17 10:15:18;;;;;;;12.30;5.25;;;;;;;2.17;97.31;99334.47;1753666;81;21489;-67
2021/12/17 10:17:54;;;;;;;9.95;4.55;;;;;;;2.22;97.17;99329.58;1727680;83;21008;-68
2021/12/17 10:20:22;;;;;;;8.63;4.42;;;;;;;2.28;96.53;99329.88;1727810;83;21011;-68
2021/12/17 10:22:59;;;;;;;7.92;4.33;;;;;;;2.32;96.72;99328.78;1727839;83;21117;-68
2021/12/17 10:25:27;;;;;;;10.50;4.17;;;;;;;2.38;95.96;99333.69;1754873;81;20974;-67
2021/12/17 10:28:03;;;;;;;10.45;4.37;;;;;;;2.39;95.32;99318.46;1730647;83;20865;-68
2021/12/17 10:30:35;;;;;;;10.00;5.10;;;;;;;2.44;94.39;99324.44;1757078;81;20951;-68
2021/12/17 10:33:08;;;;;;;8.38;4.53;;;;;;;2.43;94.17;99322.28;1756362;81;20948;-68
2021/12/17 10:35:38;;;;;;;6.60;3.52;;;;;;;2.45;94.06;99320.66;1705499;83;21152;-68
2021/12/17 10:38:12;;;;;;;7.33;3.55;;;;;;;2.48;94.07;99316.56;1757413;81;21457;-68
2021/12/17 10:40:52;;;;;;;8.25;4.47;;;;;;;2.48;93.34;99320.11;1730479;83;21479;-69
2021/12/17 10:43:25;;;;;;;8.43;3.27;;;;;;;2.50;92.87;99317.11;1730458;83;20943;-68
2021/12/17 10:53:57;;;;;;;7.60;3.72;;;;;;;2.40;91.32;99310.59;1756453;81;20995;-67
2021/12/17 10:56:30;;;;;;;9.70;3.83;;;;;;;2.39;91.18;99309.50;1725783;83;20865;-67
2021/12/17 10:59:06;;;;;;;13.62;4.25;;;;;;;2.39;90.73;99310.30;1753466;81;20987;-68
2021/12/17 11:01:54;;;;;;;10.58;4.40;;;;;;;2.37;90.52;99303.52;1729767;83;21198;-67
2021/12/17 11:04:26;;;;;;;8.55;3.42;;;;;;;2.38;90.51;99310.58;1757052;81;21445;-67
2021/12/17 11:07:04;;;;;;;9.68;3.98;;;;;;;2.39;90.33;99314.37;1730656;82;20905;-68
2021/12/17 11:09:42;;;;;;;10.75;3.70;;;;;;;2.38;89.77;99318.73;1730416;83;20892;-67
2021/12/17 11:12:37;;;;;;;9.00;4.03;;;;;;;2.36;90.11;99313.56;1725645;83;21002;-67
2021/12/17 11:15:24;;;;;;;6.87;3.47;;;;;;;2.36;90.15;99310.02;1705818;83;20984;-69
2021/12/17 11:17:55;;;;;;;10.15;3.35;;;;;;;2.35;89.61;99309.22;1756887;81;21484;-68
2021/12/17 11:20:30;;;;;;;10.88;3.67;;;;;;;2.35;89.09;99305.14;1732609;81;20924;-68
2021/12/17 11:23:06;;;;;;;6.95;2.80;;;;;;;2.34;89.49;99306.21;1730905;83;21418;-66
2021/12/17 11:25:29;;;;;;;10.45;3.40;;;;;;;2.35;89.58;99297.52;1731418;81;21062;-66
2021/12/17 11:27:56;;;;;;;10.40;3.72;;;;;;;2.37;89.23;99299.44;1685017;82;21088;-66
2021/12/17 11:30:27;;;;;;;5.80;2.62;;;;;;;2.39;89.08;99299.98;1736484;82;20951;-67
2021/12/17 11:32:54;;;;;;;9.90;3.98;;;;;;;2.41;89.36;99301.33;1711067;82;21479;-66
2021/12/17 11:35:25;;;;;;;6.22;2.85;;;;;;;2.42;89.39;99304.31;1736125;82;20988;-69
2021/12/17 11:37:53;;;;;;;9.98;4.20;;;;;;;2.37;90.18;99302.95;1736978;82;21038;-67
2021/12/17 11:40:26;;;;;;;6.85;3.22;;;;;;;2.35;90.90;99301.06;1736497;82;21135;-67
2021/12/17 11:43:18;;;;;;;8.18;3.90;;;;;;;2.31;91.09;99296.70;1736461;82;20928;-67
2021/12/17 11:45:45;;;;;;;6.53;3.77;;;;;;;2.29;91.49;99310.28;1736416;82;21030;-68
2021/12/17 11:48:21;;;;;;;11.25;4.22;;;;;;;2.26;91.75;99306.75;1757257;81;20966;-67
2021/12/17 11:51:15;;;;;;;8.10;3.35;;;;;;;2.24;91.63;99308.91;1730870;83;21050;-65
2021/12/17 11:54:03;;;;;;;7.42;3.22;;;;;;;2.28;91.89;99311.38;1730337;83;20908;-67
2021/12/17 11:56:41;;;;;;;9.40;4.25;;;;;;;2.26;91.99;99313.55;1725490;83;21544;-67
2021/12/17 11:59:28;;;;;;;10.65;4.62;;;;;;;2.22;93.00;99312.47;1725787;83;21026;-68
2021/12/17 12:02:23;;;;;;;9.90;4.10;;;;;;;2.16;96.60;99314.35;1730557;83;20923;-66
2021/12/17 12:04:57;;;;;;;14.10;5.45;;;;;;;2.15;96.62;99311.38;1730856;83;20944;-66
2021/12/17 12:07:30;;;;;;;10.93;5.42;;;;;;;2.15;96.19;99312.16;1757501;80;21409;-68
2021/12/17 12:10:22;;;;;;;11.28;5.85;;;;;;;2.15;93.41;99314.09;1730510;83;21558;-67
2021/12/17 12:12:53;;;;;;;14.07;5.67;;;;;;;2.17;93.37;99313.25;1757163;81;21032;-66
2021/12/17 12:15:27;;;;;;;13.45;5.20;;;;;;;2.22;93.22;99313.83;1730831;83;20935;-68
2021/12/17 12:18:06;;;;;;;10.43;4.90;;;;;;;2.23;92.95;99305.94;1730788;83;20956;-66
2021/12/17 12:20:51;;;;;;;11.03;4.30;;;;;;;2.24;92.92;99308.91;1725913;83;22239;-67
2021/12/17 12:23:33;;;;;;;17.80;4.70;;;;;;;2.26;92.40;99310.83;1730532;83;21011;-69
2021/12/17 12:26:08;;;;;;;6.60;2.60;;;;;;;2.25;92.00;99330.40;1719954;83;20927;-67
2021/12/17 12:29:03;;;;;;;5.90;2.60;;;;;;;2.18;91.71;99329.86;1727572;83;21465;-67
2021/12/17 12:31:39;;;;;;;5.30;3.00;;;;;;;2.00;91.48;99332.51;1754623;81;21456;-68
2021/12/17 12:34:35;;;;;;;8.03;3.80;;;;;;;1.89;91.49;99332.50;1754231;81;21409;-69
2021/12/17 12:37:21;;;;;;;5.97;3.67;;;;;;;1.72;91.15;99326.45;1754187;81;20924;-67
2021/12/17 12:39:58;;;;;;;5.12;3.08;;;;;;;1.51;91.41;99333.14;1754205;81;20963;-65
2021/12/17 12:42:36;;;;;;;7.92;5.37;;;;;;;1.44;91.86;99324.70;1754366;81;20888;-67
2021/12/17 12:45:09;;;;;;;10.98;5.60;;;;;;;1.41;91.94;99321.16;1753934;81;20865;-69
2021/12/17 12:47:55;;;;;;;12.13;5.90;;;;;;;1.32;92.07;99322.73;1727767;83;20979;-68
2021/12/17 12:50:27;;;;;;;14.93;5.50;;;;;;;1.27;92.42;99329.48;1726488;81;20991;-68
2021/12/17 12:53:03;;;;;;;15.98;6.70;;;;;;;1.29;92.76;99328.69;1700992;83;21074;-69
2021/12/17 12:55:39;;;;;;;18.05;7.05;;;;;;;1.31;93.13;99325.97;1754132;81;20972;-68
2021/12/17 12:58:11;;;;;;;18.95;7.72;;;;;;;1.35;93.35;99322.20;1742417;82;20881;-68
2021/12/17 13:00:58;;;;;;;17.40;7.28;;;;;;;1.39;93.47;99323.84;1754621;81;21778;-68
2021/12/17 13:03:32;;;;;;;25.77;8.98;;;;;;;1.42;93.59;99326.86;1727792;83;21461;-65
2021/12/17 13:06:01;;;;;;;23.30;9.70;;;;;;;1.51;93.74;99338.58;1754270;81;21464;-68
2021/12/17 13:08:36;;;;;;;19.30;9.03;;;;;;;1.54;93.73;99339.40;1696007;82;21004;-67
2021/12/17 13:11:04;;;;;;;19.37;8.63;;;;;;;1.56;93.84;99341.31;1728261;83;21129;-69
2021/12/17 13:13:49;;;;;;;;;;;;;;;;;;;;;
2021/12/17 13:16:22;;;;;;;18.32;7.97;;;;;;;1.62;94.12;99342.97;1751576;81;20880;-69
2021/12/17 13:24:27;;;;;;;10.82;3.90;;;;;;;1.78;93.07;99345.76;1725790;83;21026;-66
2021/12/17 13:27:09;;;;;;;8.20;3.77;;;;;;;1.81;92.53;99346.58;1754087;81;21206;-67
2021/12/17 13:29:38;;;;;;;6.95;2.80;;;;;;;1.81;91.90;99347.41;1702117;83;21445;-67
2021/12/17 13:32:14;;;;;;;6.22;2.85;;;;;;;1.86;92.02;99353.39;1754257;81;20849;-67
2021/12/17 13:34:53;;;;;;;12.75;3.45;;;;;;;1.88;91.98;99349.05;1727643;83;20996;-66
2021/12/17 13:37:30;;;;;;;8.40;3.92;;;;;;;1.86;90.91;99352.03;1753957;81;20924;-67
2021/12/17 13:40:00;;;;;;;7.28;3.62;;;;;;;1.87;91.10;99354.22;1754313;81;21167;-67
2021/12/17 13:42:30;;;;;;;7.83;3.33;;;;;;;1.89;91.11;99354.78;1754493;81;20976;-67
2021/12/17 13:45:02;;;;;;;9.03;3.87;;;;;;;1.86;90.93;99352.03;1727140;83;20996;-68
2021/12/17 13:47:45;;;;;;;8.28;4.08;;;;;;;1.88;91.07;99349.88;1754176;81;21028;-67
2021/12/17 13:50:28;;;;;;;10.48;4.75;;;;;;;1.90;90.91;99349.08;1755034;81;20988;-67
2021/12/17 13:53:06;;;;;;;9.83;5.28;;;;;;;1.88;90.45;99355.31;1725717;83;21527;-70
2021/12/17 13:55:44;;;;;;;11.93;5.28;;;;;;;1.88;90.51;99351.23;1699112;83;20987;-67
2021/12/17 13:58:23;;;;;;;9.78;4.58;;;;;;;1.89;90.45;99354.25;1725607;83;20901;-65
2021/12/17 14:00:54;;;;;;;11.53;4.22;;;;;;;1.87;90.00;99352.33;1699155;83;20959;-66
2021/12/17 14:03:26;;;;;;;8.40;4.15;;;;;;;1.85;89.37;99351.77;1754646;81;20928;-67
2021/12/17 14:06:09;;;;;;;7.40;4.05;;;;;;;1.81;89.29;99354.73;1722687;83;22993;-67
2021/12/17 14:08:27;;;;;;;7.33;3.92;;;;;;;1.79;89.37;99354.20;1720637;82;20888;-67
2021/12/17 14:10:54;;;;;;;8.45;3.72;;;;;;;1.79;89.24;99348.20;1701070;83;21418;-68
2021/12/17 14:13:25;;;;;;;7.90;3.92;;;;;;;1.78;89.08;99348.47;1754139;81;20928;-68
2021/12/17 14:15:53;;;;;;;10.38;4.45;;;;;;;1.77;89.06;99349.56;1727869;83;21007;-69
2021/12/17 14:18:23;;;;;;;17.55;5.90;;;;;;;1.80;89.21;99358.01;1753332;81;21783;-68
2021/12/17 14:20:54;;;;;;;9.20;4.65;;;;;;;1.81;89.19;99354.20;1727648;83;20979;-69
2021/12/17 14:23:26;;;;;;;10.65;4.28;;;;;;;1.80;88.47;99354.47;1754353;81;20954;-67
2021/12/17 14:25:57;;;;;;;7.65;3.72;;;;;;;1.79;88.55;99355.56;1754182;81;20983;-66
2021/12/17 14:28:32;;;;;;;10.32;4.90;;;;;;;1.81;88.52;99356.92;1727761;83;21572;-66
2021/12/17 14:31:05;;;;;;;13.05;5.60;;;;;;;1.82;87.94;99357.74;1727619;83;21017;-67
2021/12/17 14:33:51;;;;;;;14.55;5.83;;;;;;;1.80;88.17;99363.98;1754416;81;20972;-66
2021/12/17 14:36:39;;;;;;;9.80;5.20;;;;;;;1.78;87.78;99364.25;1727493;83;20880;-68
2021/12/17 14:39:19;;;;;;;14.05;6.42;;;;;;;1.80;87.92;99363.98;1727303;83;21572;-67
2021/12/17 14:41:56;;;;;;;11.85;5.80;;;;;;;1.81;87.91;99365.60;1700828;83;20931;-67
2021/12/17 14:47:02;;;;;;;12.65;5.55;;;;;;;1.80;87.74;99370.77;1727709;83;21031;-68